Latest Weather Observations for Pirlangimpi

IDD60901

Issued at 12:05 pm CST Saturday 1 November 2014 (issued every 10 minutes, with the page automatically refreshed every 10 minutes)

About weather observations | Map of Darwin area stations | Latest observations for Darwin area | Other Formats
Station Details ID: 014142 Name: PIRLANGIMPI AIRPORT Lat: -11.40 Lon: 130.42 Height: 18.3 m
Data from the previous 72 hours. | See also: Recent months at Pirlangimpi
Date/Time
CST
Tmp

°C
App
Tmp
°C
Dew
Point
°C
Rel
Hum
%
Delta-T

°C
Wind Press
QNH
hPa
Press
MSL
hPa
Rain
since
9 am
mm
Dir
 
Spd
km/h
Gust
km/h
Spd
kts
Gust
kts
01/12:00pm 34.9 37.5 20.5 43 9.7 E 7 13 4 7 1011.0 1010.9 0.0
01/11:30am 34.6 36.5 19.0 39 10.3 ENE 7 17 4 9 1011.6 1011.5 0.0
01/11:00am 33.6 35.8 19.7 44 9.2 NNE 7 15 4 8 1012.0 1011.9 0.0
01/10:30am 33.2 36.1 21.0 48 8.2 NE 7 17 4 9 1012.3 1012.2 0.0
01/10:00am 31.4 34.3 20.7 53 7.1 N 6 11 3 6 1012.5 1012.4 0.0
01/09:30am 31.0 34.3 21.5 57 6.4 N 6 11 3 6 1012.7 1012.6 0.0
01/09:00am 30.3 33.3 20.8 56 6.3 NNE 6 13 3 7 1012.7 1012.6 0.0
01/08:30am 29.1 32.1 20.8 61 5.5 NNE 6 9 3 5 1012.7 1012.6 0.0
01/08:00am 27.0 30.3 20.8 69 4.1 NE 4 6 2 3 1012.1 1012.0 0.0
01/07:30am 24.1 27.9 21.6 86 1.7 NE 4 6 2 3 1011.5 1011.4 0.0
01/07:00am 22.0 26.1 20.8 93 0.8 CALM 0 0 0 0 1011.0 1010.9 0.0
01/06:30am 21.2 24.3 20.2 94 0.6 NE 4 6 2 3 1010.4 1010.3 0.0
01/06:00am 20.9 23.3 19.7 93 0.8 NE 6 6 3 3 1009.9 1009.8 0.0
01/05:30am 20.7 23.4 19.5 93 0.8 NE 4 6 2 3 1009.5 1009.4 0.0
01/05:00am 20.7 23.4 19.4 92 0.8 NE 4 6 2 3 1009.1 1009.0 0.0
01/04:30am 20.7 23.3 19.2 91 0.9 NE 4 6 2 3 1008.8 1008.7 0.0
01/04:00am 20.7 23.2 19.0 90 1.1 NE 4 6 2 3 1008.4 1008.3 0.0
01/03:30am 21.0 23.7 19.5 91 1.0 ENE 4 4 2 2 1008.1 1008.0 0.0
01/03:00am 21.2 24.8 19.7 91 1.0 CALM 0 2 0 1 1008.1 1008.0 0.0
01/02:30am 21.2 24.3 19.5 90 1.1 NE 2 6 1 3 1007.9 1007.8 0.0
01/02:00am 21.6 25.2 19.7 89 1.2 CALM 0 0 0 0 1008.1 1008.0 0.0
01/01:30am 22.1 25.3 19.8 87 1.5 ENE 2 2 1 1 1008.3 1008.2 0.0
01/01:00am 22.3 25.9 19.8 86 1.6 CALM 0 0 0 0 1008.7 1008.6 0.0
01/12:30am 22.7 26.5 20.2 86 1.6 CALM 0 0 0 0 1009.1 1009.0 0.0
01/12:00am 23.1 26.9 20.1 83 1.9 NE 0 0 0 0 1009.3 1009.2 0.0
 
Date/Time
CST
Tmp

°C
App
Tmp
°C
Dew
Point
°C
Rel
Hum
%
Delta-T

°C
Wind Press
QNH
hPa
Press
MSL
hPa
Rain
since
9 am
mm
Dir
 
Spd
km/h
Gust
km/h
Spd
kts
Gust
kts
31/11:30pm 23.5 27.2 20.0 81 2.3 CALM 0 0 0 0 1009.6 1009.5 0.0
31/11:00pm 24.3 28.1 20.2 78 2.7 CALM 0 0 0 0 1010.1 1010.0 0.0
31/10:30pm 24.8 29.0 20.9 79 2.6 CALM 0 0 0 0 1010.0 1009.9 0.0
31/10:00pm 25.3 29.0 20.8 76 3.0 NW 2 6 1 3 1009.9 1009.8 0.0
31/09:30pm 25.8 29.6 21.0 75 3.2 NW 2 4 1 2 1009.9 1009.8 0.0
31/09:00pm 26.1 29.8 20.7 72 3.6 WNW 2 2 1 1 1009.8 1009.7 0.0
31/08:30pm 26.4 30.0 20.5 70 3.9 WNW 2 6 1 3 1009.7 1009.6 0.0
31/08:00pm 27.1 30.3 20.4 66 4.4 WNW 4 7 2 4 1009.4 1009.3 0.0
31/07:30pm 27.3 30.3 20.1 64 4.7 WNW 4 9 2 5 1009.3 1009.2 0.0
31/07:00pm 27.8 31.0 20.4 64 4.9 WNW 4 11 2 6 1009.0 1008.9 0.0
31/06:30pm 28.5 31.0 20.2 60 5.5 NW 7 17 4 9 1008.7 1008.6 0.0
31/06:00pm 29.1 30.9 20.3 59 5.8 NW 11 17 6 9 1008.4 1008.3 0.0
31/05:30pm 30.1 32.0 19.8 54 6.8 NW 9 17 5 9 1008.3 1008.2 0.0
31/05:00pm 31.3 33.1 20.3 52 7.3 NNW 11 22 6 12 1008.1 1008.0 0.0
31/04:30pm 31.6 33.3 20.2 50 7.6 NW 11 24 6 13 1008.2 1008.1 0.0
31/04:00pm 32.0 33.5 20.6 51 7.6 NW 13 26 7 14 1008.1 1008.0 0.0
31/03:30pm 32.9 34.5 20.8 49 8.1 NW 13 26 7 14 1008.3 1008.2 0.0
31/03:00pm 32.4 33.4 20.3 48 8.1 NW 15 28 8 15 1008.5 1008.4 0.0
31/02:30pm 33.3 35.2 20.5 47 8.6 NW 11 22 6 12 1008.7 1008.6 0.0
31/02:00pm 33.0 34.3 20.2 47 8.5 NW 13 24 7 13 1009.0 1008.9 0.0
31/01:30pm 32.9 33.8 20.1 47 8.5 NW 15 26 8 14 1009.5 1009.4 0.0
31/01:00pm 33.3 34.7 21.1 48 8.2 NW 15 22 8 12 1009.9 1009.8 0.0
31/12:30pm 32.5 33.6 20.4 49 8.1 NW 15 28 8 15 1010.3 1010.2 0.0
31/12:00pm 32.0 33.4 20.3 50 7.8 NW 13 28 7 15 1010.7 1010.6 0.0
31/11:30am 33.2 35.2 20.7 47 8.4 NW 11 26 6 14 1011.0 1010.9 0.0
31/11:00am 31.9 33.5 19.9 49 7.9 NW 11 20 6 11 1011.3 1011.2 0.0
31/10:30am 31.4 33.7 20.7 53 7.1 NW 9 19 5 10 1011.4 1011.3 0.0
31/10:00am 30.8 33.3 21.0 56 6.6 WNW 9 19 5 10 1011.7 1011.6 0.0
31/09:30am 30.1 33.3 21.2 59 6.0 NW 6 13 3 7 1011.9 1011.8 0.0
31/09:00am 30.3 33.7 21.7 60 5.8 NNW 6 9 3 5 1011.9 1011.8 0.0
31/08:30am 28.6 32.1 21.1 64 5.0 NNW 4 7 2 4 1011.7 1011.6 0.0
31/08:00am 26.9 30.7 21.0 70 3.9 N 2 6 1 3 1011.2 1011.1 0.0
31/07:30am 24.1 28.5 21.4 85 1.8 CALM 0 0 0 0 1010.9 1010.8 0.0
31/07:00am 21.9 25.7 20.2 90 1.1 CALM 0 4 0 2 1010.6 1010.5 0.0
31/06:30am 20.8 23.3 19.1 90 1.1 NE 4 4 2 2 1010.3 1010.2 0.0
31/06:00am 20.6 23.0 18.9 90 1.1 ENE 4 4 2 2 1010.0 1009.9 0.0
31/05:30am 20.6 23.5 19.1 91 0.9 NE 2 4 1 2 1009.6 1009.5 0.0
31/05:00am 20.8 23.0 19.1 90 1.1 NE 6 6 3 3 1009.2 1009.1 0.0
31/04:30am 20.8 23.7 19.1 90 1.1 ENE 2 6 1 3 1008.9 1008.8 0.0
31/04:00am 20.9 24.2 19.0 89 1.2 CALM 0 0 0 0 1008.6 1008.5 0.0
31/03:30am 21.0 24.2 18.9 88 1.3 CALM 0 0 0 0 1008.5 1008.4 0.0
31/03:00am 21.1 23.7 19.2 89 1.2 ENE 4 6 2 3 1008.5 1008.4 0.0
31/02:30am 21.2 24.5 19.1 88 1.3 CALM 0 0 0 0 1008.6 1008.5 0.0
31/02:00am 21.3 24.6 19.0 87 1.5 CALM 0 0 0 0 1008.9 1008.8 0.0
31/01:30am 21.6 24.9 19.2 86 1.5 CALM 0 0 0 0 1009.2 1009.1 0.0
31/01:00am 22.1 25.5 19.3 84 1.8 CALM 0 0 0 0 1009.1 1009.0 0.0
31/12:30am 22.4 25.1 19.4 83 1.9 NNE 4 7 2 4 1009.2 1009.1 0.0
31/12:00am 23.1 26.0 19.9 82 2.1 N 4 7 2 4 1009.3 1009.2 0.0
 
Date/Time
CST
Tmp

°C
App
Tmp
°C
Dew
Point
°C
Rel
Hum
%
Delta-T

°C
Wind Press
QNH
hPa
Press
MSL
hPa
Rain
since
9 am
mm
Dir
 
Spd
km/h
Gust
km/h
Spd
kts
Gust
kts
30/11:30pm 23.2 25.8 20.0 82 2.1 N 6 9 3 5 1009.5 1009.4 0.0
30/11:00pm 23.4 26.5 20.2 82 2.1 N 4 7 2 4 1009.6 1009.5 0.0
30/10:30pm 23.7 26.7 20.0 80 2.4 N 4 7 2 4 1009.7 1009.6 0.0
30/10:00pm 24.2 27.0 20.5 80 2.4 N 6 7 3 4 1009.7 1009.6 0.0
30/09:30pm 24.3 27.6 20.0 77 2.8 N 2 4 1 2 1009.4 1009.3 0.0
30/09:00pm 24.6 27.4 19.7 74 3.2 N 4 6 2 3 1009.1 1009.0 0.0
30/08:30pm 25.4 28.0 20.0 72 3.5 N 6 7 3 4 1009.1 1009.0 0.0
30/08:00pm 25.6 28.4 19.7 70 3.8 N 4 7 2 4 1009.1 1009.0 0.0
30/07:30pm 26.6 29.8 19.7 66 4.5 N 2 7 1 4 1009.1 1009.0 0.0
30/07:00pm 27.6 30.1 19.1 59 5.5 NNE 4 6 2 3 1009.0 1008.9 0.0
30/06:30pm 28.8 30.9 18.9 55 6.4 NNE 6 9 3 5 1008.8 1008.7 0.0
30/06:00pm 30.3 32.0 18.4 49 7.7 NE 7 11 4 6 1008.5 1008.4 0.0
30/05:30pm 31.1 33.0 19.8 51 7.5 NNW 9 17 5 9 1008.3 1008.2 0.0
30/05:00pm 31.9 33.9 18.8 45 8.5 N 6 13 3 7 1008.2 1008.1 0.0
30/04:30pm 33.1 34.0 18.5 42 9.5 NNE 11 20 6 11 1008.0 1007.9 0.0
30/04:00pm 34.2 35.0 19.1 41 9.9 NE 13 22 7 12 1008.0 1007.9 0.0
30/03:30pm 34.1 35.3 18.2 39 10.3 NNE 9 17 5 9 1008.1 1008.0 0.0
30/03:00pm 34.8 35.5 18.0 37 10.9 NNE 11 26 6 14 1008.3 1008.2 0.0
30/02:30pm 34.2 35.2 17.8 37 10.6 N 9 20 5 11 1008.5 1008.4 0.0
30/02:00pm 34.7 35.8 17.9 37 10.9 NNE 9 20 5 11 1008.7 1008.6 0.0
30/01:30pm 34.5 35.9 17.7 37 10.9 NNE 7 15 4 8 1009.2 1009.1 0.0
30/01:00pm 35.1 36.5 18.6 37 10.8 NE 9 19 5 10 1009.7 1009.6 0.0
30/12:30pm 33.4 35.0 19.1 42 9.4 NNE 9 17 5 9 1010.4 1010.3 0.0
30/12:00pm 33.5 36.0 19.9 44 9.0 N 6 13 3 7 1010.8 1010.7 0.0
30/11:30am 32.2 34.4 19.1 45 8.6 NE 6 17 3 9 1011.0 1010.9 0.0
30/11:00am 31.8 34.3 19.8 49 7.9 ENE 6 11 3 6 1011.2 1011.1 0.0
30/10:30am 31.5 34.0 19.8 49 7.7 ENE 6 13 3 7 1011.6 1011.5 0.0
30/10:00am 30.4 32.8 19.7 52 7.0 N 6 13 3 7 1011.8 1011.7 0.0
30/09:30am 29.8 32.7 20.6 57 6.1 NE 6 9 3 5 1012.0 1011.9 0.0
30/09:00am 28.5 31.7 21.3 65 4.8 NNE 6 7 3 4 1012.2 1012.1 0.0
30/08:30am 28.9 31.8 21.1 62 5.2 NE 7 13 4 7 1012.0 1011.9 0.0
30/08:00am 26.9 30.2 21.4 72 3.7 NE 6 9 3 5 1011.8 1011.7 0.0
30/07:30am 24.6 27.6 20.9 80 2.4 NE 6 7 3 4 1011.3 1011.2 0.0
30/07:00am 22.4 25.8 21.0 92 0.9 NE 4 7 2 4 1011.1 1011.0 0.0
30/06:30am 21.2 24.0 19.7 91 1.0 NE 4 6 2 3 1010.7 1010.6 0.0
30/06:00am 21.0 23.7 19.5 91 1.0 NE 4 7 2 4 1010.4 1010.3 0.0
30/05:30am 21.2 24.3 19.5 90 1.1 NNE 2 4 1 2 1010.0 1009.9 0.0
30/05:00am 21.3 24.4 19.6 90 1.1 NE 2 4 1 2 1009.9 1009.8 0.0
30/04:30am 21.5 24.3 19.6 89 1.2 NE 4 4 2 2 1009.9 1009.8 0.0
30/04:00am 21.7 24.9 19.8 89 1.2 NE 2 4 1 2 1009.9 1009.8 0.0
30/03:30am 21.8 25.0 19.7 88 1.3 NE 2 4 1 2 1010.0 1009.9 0.0
30/03:00am 21.9 24.7 19.6 87 1.5 ENE 4 6 2 3 1010.2 1010.1 0.0
30/02:30am 22.1 25.2 19.6 86 1.6 ENE 2 4 1 2 1010.2 1010.1 0.0
30/02:00am 22.3 25.5 19.8 86 1.6 ENE 2 4 1 2 1010.2 1010.1 0.0
30/01:30am 22.5 25.8 20.0 86 1.6 ENE 2 4 1 2 1010.4 1010.3 0.0
30/01:00am 22.6 25.9 19.9 85 1.7 ENE 2 4 1 2 1010.8 1010.7 0.0
30/12:30am 23.0 26.8 20.1 84 1.9 CALM 0 0 0 0 1011.1 1011.0 0.0
30/12:00am 23.0 26.6 19.8 82 2.1 CALM 0 0 0 0 1011.1 1011.0 0.0
 
Date/Time
CST
Tmp

°C
App
Tmp
°C
Dew
Point
°C
Rel
Hum
%
Delta-T

°C
Wind Press
QNH
hPa
Press
MSL
hPa
Rain
since
9 am
mm
Dir
 
Spd
km/h
Gust
km/h
Spd
kts
Gust
kts
29/11:30pm 23.6 26.5 19.9 80 2.4 S 4 4 2 2 1011.1 1011.0 0.0
29/11:00pm 24.1 27.5 20.2 79 2.5 NE 2 6 1 3 1011.3 1011.2 0.0
29/10:30pm 24.4 27.9 20.3 78 2.7 NE 2 4 1 2 1011.3 1011.2 0.0
29/10:00pm 24.5 27.7 20.4 78 2.7 NNE 4 7 2 4 1011.1 1011.0 0.0
29/09:30pm 25.0 28.2 20.5 76 2.9 N 4 6 2 3 1010.9 1010.8 0.0
29/09:00pm 25.2 28.5 20.7 76 3.0 N 4 6 2 3 1011.1 1011.0 0.0
29/08:30pm 25.4 28.5 20.2 73 3.4 N 4 6 2 3 1010.8 1010.7 0.0
29/08:00pm 25.6 28.7 20.2 72 3.5 NNE 4 7 2 4 1010.6 1010.5 0.0
29/07:30pm 26.5 29.6 20.3 68 4.1 N 4 7 2 4 1010.4 1010.3 0.0
29/07:00pm 27.3 30.2 20.6 67 4.4 N 6 11 3 6 1010.1 1010.0 0.0
29/06:30pm 28.1 30.8 20.6 63 5.0 NNW 7 15 4 8 1010.0 1009.9 0.0
29/06:00pm 28.8 30.8 20.8 62 5.3 NNW 11 17 6 9 1009.8 1009.7 0.0
29/05:30pm 29.8 32.0 21.2 60 5.8 NNW 11 20 6 11 1009.7 1009.6 0.0
29/05:00pm 30.7 32.5 21.2 57 6.4 NW 13 20 7 11 1009.5 1009.4 0.0
29/04:30pm 31.1 33.1 21.6 57 6.4 NW 13 22 7 12 1009.6 1009.5 0.0
29/04:00pm 32.0 33.6 21.5 53 7.1 NW 15 24 8 13 1009.7 1009.6 0.0
29/03:30pm 32.5 34.4 21.4 52 7.5 NNW 13 24 7 13 1009.7 1009.6 0.0
29/03:00pm 32.2 33.3 22.0 55 6.9 NW 19 26 10 14 1009.7 1009.6 0.0
29/02:30pm 33.5 35.2 22.3 52 7.7 NW 17 30 9 16 1009.8 1009.7 0.0
29/02:00pm 34.6 37.4 22.3 48 8.4 NW 11 24 6 13 1009.8 1009.7 0.0
29/01:30pm 35.4 37.8 19.7 39 10.5 WNW 6 9 3 5 1010.2 1010.1 0.0
29/01:00pm 34.1 35.8 19.4 42 9.7 NW 9 15 5 8 1010.9 1010.8 0.0
29/12:30pm 33.4 35.0 19.1 42 9.4 NW 9 19 5 10 1011.6 1011.5 0.0

Latest Capital City Observations: Canberra | Sydney | Melbourne | Brisbane | Adelaide | Perth | Hobart | Darwin

Other Formats:

Comma delimited format used in spreadsheet applications
http://www.bom.gov.au/fwo/IDD60901/IDD60901.94119.axf

JavaScript Object Notation format (JSON) in row-major order
http://www.bom.gov.au/fwo/IDD60901/IDD60901.94119.json